createdAt,value
2023-02-09T00:01:09.592Z,-4.94
2023-02-09T00:03:37.960Z,-4.92
2023-02-09T00:06:07.150Z,-4.92
2023-02-09T00:08:36.886Z,-4.92
2023-02-09T00:11:08.892Z,-4.87
2023-02-09T00:13:39.952Z,-4.88
2023-02-09T00:16:07.970Z,-4.90
2023-02-09T00:18:36.220Z,-4.90
2023-02-09T00:21:06.935Z,-4.92
2023-02-09T00:23:37.632Z,-4.94
2023-02-09T00:26:09.513Z,-4.92
2023-02-09T00:28:37.875Z,-4.93
2023-02-09T00:31:09.552Z,-4.90
2023-02-09T00:33:41.324Z,-4.92
2023-02-09T00:36:13.289Z,-4.93
2023-02-09T00:38:42.808Z,-4.95
2023-02-09T00:41:12.540Z,-5.00
2023-02-09T00:43:41.381Z,-5.10
2023-02-09T00:46:09.743Z,-5.17
2023-02-09T00:48:37.953Z,-5.17
2023-02-09T00:51:06.164Z,-5.24
2023-02-09T00:53:36.115Z,-5.28
2023-02-09T00:56:03.701Z,-5.29
2023-02-09T00:58:33.147Z,-5.29
2023-02-09T01:01:01.077Z,-5.27
2023-02-09T01:03:28.917Z,-5.26
2023-02-09T01:05:59.534Z,-5.22
2023-02-09T01:08:27.469Z,-5.24
2023-02-09T01:10:55.253Z,-5.27
2023-02-09T01:13:22.924Z,-5.52
2023-02-09T01:15:51.858Z,-5.81
2023-02-09T01:18:19.760Z,-5.81
2023-02-09T01:20:47.492Z,-5.88
2023-02-09T01:23:17.096Z,-5.96
2023-02-09T01:25:45.588Z,-5.88
2023-02-09T01:28:13.623Z,-5.82
2023-02-09T01:30:41.381Z,-5.74
2023-02-09T01:33:10.448Z,-5.62
2023-02-09T01:35:39.114Z,-5.58
2023-02-09T01:38:06.728Z,-5.60
2023-02-09T01:40:34.933Z,-5.61
2023-02-09T01:43:02.643Z,-5.84
2023-02-09T01:45:37.055Z,-5.82
2023-02-09T01:48:05.157Z,-5.71
2023-02-09T01:50:38.817Z,-5.67
2023-02-09T01:53:07.927Z,-5.68
2023-02-09T01:55:43.311Z,-5.68
2023-02-09T01:58:14.419Z,-5.70
2023-02-09T02:00:43.657Z,-5.71
2023-02-09T02:03:16.247Z,-5.68
2023-02-09T02:05:51.619Z,-5.74
2023-02-09T02:08:27.396Z,-5.75
2023-02-09T02:10:56.351Z,-5.78
2023-02-09T02:13:24.282Z,-5.78
2023-02-09T02:16:02.859Z,-5.77
2023-02-09T02:18:56.636Z,-5.76
2023-02-09T02:21:44.942Z,-5.73
2023-02-09T02:24:30.891Z,-5.68
2023-02-09T02:27:01.250Z,-5.65
2023-02-09T02:29:51.979Z,-5.67
2023-02-09T02:32:42.157Z,-5.63
2023-02-09T02:35:19.087Z,-5.64
2023-02-09T02:37:57.049Z,-5.71
2023-02-09T02:40:38.874Z,-5.75
2023-02-09T02:43:13.416Z,-5.73
2023-02-09T02:45:46.269Z,-5.71
2023-02-09T02:48:28.720Z,-5.77
2023-02-09T02:51:03.676Z,-5.92
2023-02-09T02:53:34.499Z,-6.65
2023-02-09T02:56:08.720Z,-6.30
2023-02-09T02:58:39.997Z,-6.25
2023-02-09T03:01:13.728Z,-6.25
2023-02-09T03:03:44.837Z,-6.32
2023-02-09T03:06:14.547Z,-6.24
2023-02-09T03:08:54.029Z,-6.31
2023-02-09T03:11:24.452Z,-6.34
2023-02-09T03:14:18.753Z,-6.44
2023-02-09T03:16:49.843Z,-6.50
2023-02-09T03:19:31.167Z,-6.51
2023-02-09T03:22:05.442Z,-6.50
2023-02-09T03:24:38.271Z,-6.50
2023-02-09T03:27:14.897Z,-6.44
2023-02-09T03:29:46.113Z,-6.33
2023-02-09T03:32:14.921Z,-6.20
2023-02-09T03:34:44.513Z,-6.11
2023-02-09T03:37:12.702Z,-6.17
2023-02-09T03:39:40.613Z,-6.10
2023-02-09T03:42:09.063Z,-6.04
2023-02-09T03:44:36.676Z,-6.05
2023-02-09T03:47:07.010Z,-6.02
2023-02-09T03:49:36.948Z,-6.12
2023-02-09T03:52:08.041Z,-6.34
2023-02-09T03:54:36.932Z,-6.26
2023-02-09T03:57:05.655Z,-6.40
2023-02-09T03:59:35.354Z,-6.40
2023-02-09T04:02:04.213Z,-6.51
2023-02-09T04:04:32.807Z,-6.63
2023-02-09T04:07:01.240Z,-7.08
2023-02-09T04:09:30.304Z,-7.28
2023-02-09T04:11:58.689Z,-7.09
2023-02-09T04:14:26.516Z,-6.94
2023-02-09T04:16:55.168Z,-6.94
2023-02-09T04:19:22.786Z,-6.84
2023-02-09T04:21:50.877Z,-6.65
2023-02-09T04:24:27.013Z,-6.57
2023-02-09T04:26:56.248Z,-6.50
2023-02-09T04:29:23.855Z,-6.43
2023-02-09T04:31:52.255Z,-6.36
2023-02-09T04:34:21.135Z,-6.41
2023-02-09T04:36:49.456Z,-6.39
2023-02-09T04:39:17.350Z,-6.41
2023-02-09T04:41:45.945Z,-6.43
2023-02-09T04:44:14.880Z,-6.41
2023-02-09T04:46:45.339Z,-6.42
2023-02-09T04:49:13.233Z,-6.39
2023-02-09T04:51:41.132Z,-6.27
2023-02-09T04:54:08.713Z,-6.24
2023-02-09T04:56:38.690Z,-6.36
2023-02-09T04:59:23.985Z,-6.40
2023-02-09T05:01:53.327Z,-6.43
2023-02-09T05:04:20.895Z,-6.47
2023-02-09T05:06:49.396Z,-6.46
2023-02-09T05:09:16.988Z,-6.56
2023-02-09T05:11:45.215Z,-6.57
2023-02-09T05:14:12.804Z,-6.69
2023-02-09T05:16:40.685Z,-6.65
2023-02-09T05:19:09.956Z,-6.68
2023-02-09T05:21:37.539Z,-6.66
2023-02-09T05:24:06.048Z,-6.57
2023-02-09T05:26:33.662Z,-6.54
2023-02-09T05:29:01.783Z,-6.78
2023-02-09T05:31:29.613Z,-6.92
2023-02-09T05:33:57.981Z,-6.92
2023-02-09T05:36:27.034Z,-6.99
2023-02-09T05:38:54.860Z,-6.98
2023-02-09T05:41:36.375Z,-7.13
2023-02-09T05:44:05.469Z,-7.23
2023-02-09T05:46:33.201Z,-7.29
2023-02-09T05:49:01.506Z,-7.29
2023-02-09T05:51:30.420Z,-7.22
2023-02-09T05:53:58.372Z,-7.06
2023-02-09T05:56:26.120Z,-6.89
2023-02-09T05:58:53.724Z,-6.70
2023-02-09T06:01:21.317Z,-6.68
2023-02-09T06:03:49.321Z,-6.68
2023-02-09T06:06:16.948Z,-6.68
2023-02-09T06:08:46.194Z,-6.65
2023-02-09T06:11:13.806Z,-6.61
2023-02-09T06:13:42.021Z,-6.60
2023-02-09T06:16:09.790Z,-6.50
2023-02-09T06:18:38.657Z,-6.41
2023-02-09T06:21:06.606Z,-6.33
2023-02-09T06:23:35.358Z,-6.32
2023-02-09T06:26:08.437Z,-6.29
2023-02-09T06:28:36.183Z,-6.24
2023-02-09T06:31:04.218Z,-6.31
2023-02-09T06:33:33.072Z,-6.29
2023-02-09T06:36:00.709Z,-6.44
2023-02-09T06:38:28.842Z,-6.39
2023-02-09T06:40:56.501Z,-6.53
2023-02-09T06:43:26.085Z,-6.52
2023-02-09T06:45:54.792Z,-6.64
2023-02-09T06:48:22.976Z,-6.62
2023-02-09T06:50:50.803Z,-6.49
2023-02-09T06:53:18.845Z,-6.38
2023-02-09T06:55:46.592Z,-6.31
2023-02-09T06:58:14.155Z,-6.31
2023-02-09T07:00:43.659Z,-6.23
2023-02-09T07:03:11.817Z,-6.24
2023-02-09T07:05:39.453Z,-6.16
2023-02-09T07:08:07.018Z,-6.00
2023-02-09T07:10:35.294Z,-5.91
2023-02-09T07:13:02.912Z,-5.78
2023-02-09T07:15:31.077Z,-5.78
2023-02-09T07:18:00.337Z,-5.75
2023-02-09T07:20:28.546Z,-5.82
2023-02-09T07:22:56.099Z,-5.85
2023-02-09T07:25:24.287Z,-5.77
2023-02-09T07:27:51.921Z,-5.69
2023-02-09T07:30:20.275Z,-5.52
2023-02-09T07:32:47.854Z,-5.40
2023-02-09T07:35:17.911Z,-5.29
2023-02-09T07:37:45.496Z,-5.12
2023-02-09T07:40:14.037Z,-4.92
2023-02-09T07:42:41.608Z,-4.98
2023-02-09T07:45:10.244Z,-4.95
2023-02-09T07:47:38.789Z,-4.87
2023-02-09T07:50:07.186Z,-4.66
2023-02-09T07:52:36.110Z,-4.37
2023-02-09T07:55:04.579Z,-4.17
2023-02-09T07:57:32.931Z,-3.94
2023-02-09T08:00:01.189Z,-3.68
2023-02-09T08:02:34.947Z,-3.52
2023-02-09T08:05:04.720Z,-3.28
2023-02-09T08:07:32.818Z,-3.05
2023-02-09T08:10:02.572Z,-2.89
2023-02-09T08:12:45.507Z,-2.76
2023-02-09T08:15:16.544Z,-2.47
2023-02-09T08:17:44.307Z,-2.33
2023-02-09T08:20:15.640Z,-2.11
2023-02-09T08:22:47.880Z,-1.96
2023-02-09T08:25:20.345Z,-1.94
2023-02-09T08:27:48.223Z,-1.74
2023-02-09T08:30:18.277Z,-1.66
2023-02-09T08:32:45.864Z,-1.49
2023-02-09T08:35:14.044Z,-1.40
2023-02-09T08:37:41.710Z,-1.28
2023-02-09T08:40:10.153Z,-1.20
2023-02-09T08:42:39.065Z,-0.87
2023-02-09T08:45:07.854Z,-0.82
2023-02-09T08:47:35.462Z,-0.59
2023-02-09T08:50:03.446Z,-0.28
2023-02-09T08:52:31.030Z,0.07
2023-02-09T08:54:59.081Z,0.21
2023-02-09T08:57:41.788Z,0.20
2023-02-09T09:00:14.504Z,0.85
2023-02-09T09:02:42.212Z,0.74
2023-02-09T09:05:11.268Z,0.98
2023-02-09T09:07:39.004Z,1.81
2023-02-09T09:10:08.797Z,3.00
2023-02-09T09:12:37.367Z,4.27
2023-02-09T09:15:06.025Z,5.30
2023-02-09T09:17:34.992Z,5.91
2023-02-09T09:20:02.791Z,6.31
2023-02-09T09:22:30.409Z,6.50
2023-02-09T09:24:58.014Z,6.72
2023-02-09T09:27:27.124Z,6.49
2023-02-09T09:29:54.909Z,6.76
2023-02-09T09:32:24.848Z,6.79
2023-02-09T09:34:55.276Z,7.43
2023-02-09T09:37:24.148Z,7.29
2023-02-09T09:39:52.095Z,7.79
2023-02-09T09:42:24.689Z,8.47
2023-02-09T09:44:53.710Z,8.38
2023-02-09T09:47:27.213Z,7.91
2023-02-09T09:49:56.356Z,8.67
2023-02-09T09:52:31.130Z,8.79
2023-02-09T09:54:59.405Z,9.28
2023-02-09T09:57:29.684Z,9.13
2023-02-09T09:59:58.523Z,9.90
2023-02-09T10:02:30.923Z,10.44
2023-02-09T10:05:03.547Z,10.62
2023-02-09T10:07:33.546Z,10.81
2023-02-09T10:10:05.823Z,10.64
2023-02-09T10:12:38.336Z,9.86
2023-02-09T10:15:28.203Z,10.39
2023-02-09T10:17:57.812Z,10.48
2023-02-09T10:20:48.602Z,10.53
2023-02-09T10:23:19.761Z,11.06
2023-02-09T10:25:55.562Z,11.25
2023-02-09T10:28:25.580Z,11.57
2023-02-09T10:30:55.852Z,11.85
2023-02-09T10:33:24.275Z,12.45
2023-02-09T10:35:54.966Z,12.51
2023-02-09T10:38:25.403Z,12.63
2023-02-09T10:40:54.400Z,12.28
2023-02-09T10:43:25.390Z,12.38
2023-02-09T10:45:56.576Z,12.08
2023-02-09T10:48:26.140Z,12.35
2023-02-09T10:50:59.068Z,12.82
2023-02-09T10:53:30.179Z,12.96
2023-02-09T10:56:04.319Z,11.82
2023-02-09T10:58:33.537Z,8.82
2023-02-09T11:01:13.697Z,10.68
2023-02-09T11:03:59.274Z,11.63
2023-02-09T11:06:29.218Z,11.68
2023-02-09T11:09:01.948Z,11.74
2023-02-09T11:11:32.180Z,11.87
2023-02-09T11:14:00.935Z,12.29
2023-02-09T11:16:48.555Z,11.27
2023-02-09T11:19:30.097Z,11.19
2023-02-09T11:22:07.535Z,11.09
2023-02-09T11:24:49.020Z,11.11
2023-02-09T11:27:29.497Z,10.63
2023-02-09T11:30:09.620Z,11.03
2023-02-09T11:32:43.786Z,11.16
2023-02-09T11:35:13.451Z,10.92
2023-02-09T11:37:50.863Z,9.47
2023-02-09T11:40:26.223Z,10.99
2023-02-09T11:43:06.338Z,11.62
2023-02-09T11:45:40.409Z,11.33
2023-02-09T11:48:12.804Z,11.29
2023-02-09T11:50:49.764Z,9.49
2023-02-09T11:53:26.183Z,9.55
2023-02-09T11:55:57.354Z,9.25
2023-02-09T11:58:35.740Z,8.44
2023-02-09T12:01:15.767Z,7.57
2023-02-09T12:03:58.931Z,6.86
2023-02-09T12:06:29.331Z,6.45
2023-02-09T12:09:10.120Z,6.20
2023-02-09T12:11:46.921Z,6.47
2023-02-09T12:14:24.945Z,6.85
2023-02-09T12:16:59.798Z,7.56
2023-02-09T12:19:35.255Z,7.29
2023-02-09T12:22:40.501Z,7.72
2023-02-09T12:25:25.376Z,8.33
2023-02-09T12:28:12.718Z,7.61
2023-02-09T12:30:59.896Z,7.59
2023-02-09T12:33:34.918Z,8.46
2023-02-09T12:36:05.803Z,7.99
2023-02-09T12:39:05.468Z,8.79
2023-02-09T12:42:06.713Z,7.74
2023-02-09T12:44:54.852Z,8.71
2023-02-09T12:47:43.612Z,8.59
2023-02-09T12:50:23.570Z,6.83
2023-02-09T12:53:31.409Z,6.47
2023-02-09T12:56:00.592Z,6.87
2023-02-09T12:58:39.983Z,6.28
2023-02-09T13:01:09.188Z,6.39
2023-02-09T13:03:43.454Z,5.90
2023-02-09T13:06:29.515Z,5.83
2023-02-09T13:09:00.901Z,5.59
2023-02-09T13:11:41.444Z,6.10
2023-02-09T13:14:13.504Z,5.28
2023-02-09T13:17:24.551Z,6.10
2023-02-09T13:20:11.417Z,5.97
2023-02-09T13:22:54.633Z,5.97
2023-02-09T13:25:30.194Z,5.98
2023-02-09T13:28:10.295Z,6.03
2023-02-09T13:30:38.560Z,6.05
2023-02-09T13:33:22.841Z,5.99
2023-02-09T13:36:08.927Z,5.55
2023-02-09T13:38:41.536Z,5.05
2023-02-09T13:41:24.321Z,4.83
2023-02-09T13:43:51.957Z,4.70
2023-02-09T13:46:26.927Z,4.91
2023-02-09T13:49:10.159Z,4.84
2023-02-09T13:51:38.459Z,5.39
2023-02-09T13:54:06.172Z,5.00
2023-02-09T13:56:35.783Z,5.05
2023-02-09T13:59:03.632Z,5.41
2023-02-09T14:01:34.499Z,5.33
2023-02-09T14:04:08.477Z,5.57
2023-02-09T14:06:40.808Z,5.66
2023-02-09T14:09:13.798Z,5.52
2023-02-09T14:11:46.412Z,5.25
2023-02-09T14:14:20.605Z,4.96
2023-02-09T14:16:53.913Z,5.36
2023-02-09T14:19:31.572Z,5.62
2023-02-09T14:21:59.661Z,6.48
2023-02-09T14:24:28.059Z,6.55
2023-02-09T14:27:03.956Z,6.93
2023-02-09T14:29:33.796Z,6.85
2023-02-09T14:32:05.174Z,6.71
2023-02-09T14:34:36.772Z,6.65
2023-02-09T14:37:26.321Z,6.27
2023-02-09T14:40:00.774Z,6.60
2023-02-09T14:42:28.992Z,6.10
2023-02-09T14:44:58.898Z,5.42
2023-02-09T14:47:40.228Z,5.32
2023-02-09T14:50:11.193Z,5.09
2023-02-09T14:52:39.874Z,5.28
2023-02-09T14:55:17.182Z,5.64
2023-02-09T14:57:44.821Z,5.71
2023-02-09T15:00:19.226Z,5.52
2023-02-09T15:02:47.257Z,6.31
2023-02-09T15:05:14.963Z,6.62
2023-02-09T15:07:45.632Z,6.19
2023-02-09T15:10:25.895Z,5.82
2023-02-09T15:12:54.679Z,5.55
2023-02-09T15:15:24.515Z,5.50
2023-02-09T15:17:54.171Z,5.21
2023-02-09T15:20:24.782Z,5.02
2023-02-09T15:22:52.475Z,5.03
2023-02-09T15:25:22.648Z,5.31
2023-02-09T15:27:53.952Z,5.36
2023-02-09T15:30:23.580Z,5.29
2023-02-09T15:32:52.343Z,5.20
2023-02-09T15:35:22.957Z,4.94
2023-02-09T15:37:54.321Z,4.48
2023-02-09T15:40:45.497Z,4.46
2023-02-09T15:43:33.584Z,4.50
2023-02-09T15:46:19.069Z,4.70
2023-02-09T15:48:46.692Z,4.89
2023-02-09T15:51:15.575Z,4.92
2023-02-09T15:53:43.832Z,4.95
2023-02-09T15:56:14.753Z,4.71
2023-02-09T15:58:44.795Z,4.62
2023-02-09T16:01:15.244Z,4.51
2023-02-09T16:03:42.932Z,4.26
2023-02-09T16:06:16.445Z,4.39
2023-02-09T16:08:45.281Z,4.19
2023-02-09T16:11:19.770Z,4.02
2023-02-09T16:13:47.426Z,3.90
2023-02-09T16:16:17.881Z,3.66
2023-02-09T16:18:46.387Z,3.56
2023-02-09T16:21:21.181Z,3.36
2023-02-09T16:23:48.974Z,3.22
2023-02-09T16:26:19.270Z,3.21
2023-02-09T16:28:47.219Z,3.33
2023-02-09T16:31:15.146Z,3.16
2023-02-09T16:33:43.599Z,3.12
2023-02-09T16:36:14.779Z,3.23
2023-02-09T16:38:43.309Z,3.04
2023-02-09T16:41:34.617Z,2.91
2023-02-09T16:44:15.140Z,2.79
2023-02-09T16:46:42.946Z,2.71
2023-02-09T16:49:30.812Z,2.56
2023-02-09T16:52:01.870Z,2.42
2023-02-09T16:54:33.347Z,2.38
2023-02-09T16:57:01.286Z,2.38
2023-02-09T16:59:30.258Z,2.31
2023-02-09T17:01:59.872Z,2.24
2023-02-09T17:04:27.599Z,2.15
2023-02-09T17:06:55.825Z,2.10
2023-02-09T17:09:23.413Z,2.03
2023-02-09T17:11:51.182Z,1.93
2023-02-09T17:14:19.112Z,1.83
2023-02-09T17:16:49.656Z,1.78
2023-02-09T17:19:19.461Z,1.75
2023-02-09T17:21:47.119Z,1.63
2023-02-09T17:24:17.201Z,1.55
2023-02-09T17:26:45.604Z,1.49
2023-02-09T17:29:14.551Z,1.42
2023-02-09T17:31:52.730Z,1.42
2023-02-09T17:34:27.388Z,1.37
2023-02-09T17:36:55.082Z,1.33
2023-02-09T17:39:23.386Z,1.30
2023-02-09T17:41:51.168Z,1.22
2023-02-09T17:44:35.255Z,1.17
2023-02-09T17:47:14.080Z,1.20
2023-02-09T17:49:43.144Z,1.13
2023-02-09T17:52:16.815Z,1.06
2023-02-09T17:54:45.398Z,1.03
2023-02-09T17:57:14.128Z,0.97
2023-02-09T17:59:42.067Z,0.92
2023-02-09T18:02:16.321Z,0.76
2023-02-09T18:04:45.686Z,0.54
2023-02-09T18:07:14.448Z,0.46
2023-02-09T18:09:42.568Z,0.36
2023-02-09T18:12:19.380Z,0.10
2023-02-09T18:14:47.386Z,-0.07
2023-02-09T18:17:14.982Z,-0.04
2023-02-09T18:19:42.884Z,-0.19
2023-02-09T18:22:16.878Z,-0.09
2023-02-09T18:24:45.699Z,-0.09
2023-02-09T18:27:17.272Z,-0.26
2023-02-09T18:29:45.479Z,-0.64
2023-02-09T18:32:16.052Z,-0.86
2023-02-09T18:34:44.079Z,-0.68
2023-02-09T18:37:14.739Z,-0.60
2023-02-09T18:39:46.690Z,-0.51
2023-02-09T18:42:15.927Z,-0.35
2023-02-09T18:44:43.978Z,-0.26
2023-02-09T18:47:12.406Z,-0.21
2023-02-09T18:49:40.337Z,-0.26
2023-02-09T18:52:08.483Z,-0.30
2023-02-09T18:54:38.204Z,-0.36
2023-02-09T18:57:05.839Z,-0.22
2023-02-09T18:59:33.624Z,-0.21
2023-02-09T19:02:01.301Z,-0.32
2023-02-09T19:04:29.348Z,-0.67
2023-02-09T19:06:56.937Z,-0.59
2023-02-09T19:09:25.179Z,-0.62
2023-02-09T19:11:54.105Z,-0.89
2023-02-09T19:14:40.223Z,-0.83
2023-02-09T19:17:10.232Z,-0.93
2023-02-09T19:19:38.877Z,-0.96
2023-02-09T19:22:06.774Z,-0.94
2023-02-09T19:24:34.390Z,-0.93
2023-02-09T19:27:03.459Z,-0.97
2023-02-09T19:29:31.324Z,-1.12
2023-02-09T19:31:58.888Z,-1.07
2023-02-09T19:34:31.301Z,-1.04
2023-02-09T19:36:59.046Z,-1.05
2023-02-09T19:39:27.057Z,-1.00
2023-02-09T19:41:54.721Z,-0.94
2023-02-09T19:44:24.004Z,-1.07
2023-02-09T19:46:51.669Z,-0.98
2023-02-09T19:49:19.432Z,-0.93
2023-02-09T19:51:47.148Z,-0.88
2023-02-09T19:54:14.740Z,-0.88
2023-02-09T19:56:45.115Z,-0.93
2023-02-09T19:59:13.743Z,-0.88
2023-02-09T20:01:43.437Z,-0.95
2023-02-09T20:04:11.208Z,-1.04
2023-02-09T20:06:39.222Z,-1.07
2023-02-09T20:09:06.817Z,-1.14
2023-02-09T20:11:35.203Z,-1.36
2023-02-09T20:14:03.103Z,-1.36
2023-02-09T20:16:30.990Z,-1.37
2023-02-09T20:19:00.036Z,-1.41
2023-02-09T20:21:27.921Z,-1.47
2023-02-09T20:23:56.267Z,-1.55
2023-02-09T20:26:28.957Z,-1.54
2023-02-09T20:28:57.772Z,-1.76
2023-02-09T20:31:27.989Z,-1.86
2023-02-09T20:33:56.171Z,-1.87
2023-02-09T20:36:25.916Z,-1.83
2023-02-09T20:38:53.961Z,-1.86
2023-02-09T20:41:21.910Z,-1.89
2023-02-09T20:44:07.014Z,-2.00
2023-02-09T20:46:55.684Z,-1.99
2023-02-09T20:49:25.735Z,-2.02
2023-02-09T20:51:55.153Z,-2.00
2023-02-09T20:54:22.736Z,-2.01
2023-02-09T20:56:50.456Z,-1.98
2023-02-09T20:59:18.237Z,-1.96
2023-02-09T21:01:46.258Z,-1.89
2023-02-09T21:04:13.917Z,-1.92
2023-02-09T21:06:41.503Z,-2.09
2023-02-09T21:09:14.073Z,-2.07
2023-02-09T21:11:42.320Z,-2.00
2023-02-09T21:14:21.721Z,-1.98
2023-02-09T21:16:57.874Z,-2.14
2023-02-09T21:19:25.949Z,-2.18
2023-02-09T21:21:53.728Z,-2.17
2023-02-09T21:24:22.953Z,-2.15
2023-02-09T21:26:50.527Z,-2.15
2023-02-09T21:29:18.136Z,-2.10
2023-02-09T21:31:46.246Z,-1.95
2023-02-09T21:34:15.100Z,-1.88
2023-02-09T21:36:43.686Z,-1.94
2023-02-09T21:39:11.403Z,-1.81
2023-02-09T21:41:58.484Z,-1.64
2023-02-09T21:44:26.281Z,-1.51
2023-02-09T21:46:55.206Z,-1.40
2023-02-09T21:49:23.164Z,-1.40
2023-02-09T21:51:51.167Z,-1.26
2023-02-09T21:54:19.453Z,-1.18
2023-02-09T21:56:48.443Z,-1.10
2023-02-09T21:59:16.060Z,-1.08
2023-02-09T22:01:43.727Z,-1.08
2023-02-09T22:04:11.372Z,-1.07
2023-02-09T22:06:39.601Z,-1.04
2023-02-09T22:09:07.188Z,-1.00
2023-02-09T22:11:35.540Z,-0.99
2023-02-09T22:14:04.536Z,-0.98
2023-02-09T22:16:32.605Z,-1.21
2023-02-09T22:19:00.673Z,-1.60
2023-02-09T22:21:28.704Z,-1.73
2023-02-09T22:23:56.360Z,-2.17
2023-02-09T22:26:24.470Z,-2.13
2023-02-09T22:28:52.117Z,-2.22
2023-02-09T22:31:22.057Z,-2.21
2023-02-09T22:33:54.155Z,-2.26
2023-02-09T22:36:23.305Z,-2.37
2023-02-09T22:38:51.343Z,-2.37
2023-02-09T22:41:24.452Z,-2.69
2023-02-09T22:43:54.106Z,-2.74
2023-02-09T22:46:25.480Z,-2.92
2023-02-09T22:48:54.253Z,-2.93
2023-02-09T22:51:23.881Z,-2.86
2023-02-09T22:53:51.868Z,-2.81
2023-02-09T22:56:19.508Z,-2.68
2023-02-09T22:58:47.476Z,-2.55
2023-02-09T23:01:15.461Z,-2.58
2023-02-09T23:03:44.869Z,-2.56
2023-02-09T23:06:15.169Z,-2.59
2023-02-09T23:08:43.115Z,-2.59
2023-02-09T23:11:13.413Z,-2.61
2023-02-09T23:13:42.218Z,-2.65
2023-02-09T23:16:11.852Z,-2.76
2023-02-09T23:18:40.554Z,-2.81
2023-02-09T23:21:09.491Z,-2.84
2023-02-09T23:23:37.486Z,-3.20
2023-02-09T23:26:05.413Z,-3.27
2023-02-09T23:28:33.190Z,-3.28
2023-02-09T23:31:05.443Z,-3.20
2023-02-09T23:33:33.758Z,-3.17
2023-02-09T23:36:04.524Z,-3.13
2023-02-09T23:38:33.877Z,-3.04
2023-02-09T23:41:06.359Z,-2.95
2023-02-09T23:43:34.542Z,-2.98
2023-02-09T23:46:02.338Z,-3.06
2023-02-09T23:48:30.466Z,-3.21
2023-02-09T23:51:02.026Z,-3.13
2023-02-09T23:53:30.593Z,-3.05
2023-02-09T23:56:03.726Z,-3.01
2023-02-09T23:58:32.268Z,-2.94
